createdAt,value
2022-10-29T00:00:51.175Z,96725.19
2022-10-29T00:03:19.458Z,96738.44
2022-10-29T00:06:16.421Z,96733.09
2022-10-29T00:08:43.915Z,96726.38
2022-10-29T00:11:14.638Z,96742.81
2022-10-29T00:13:42.965Z,96739.31
2022-10-29T00:16:11.946Z,96728.41
2022-10-29T00:18:39.738Z,96743.34
2022-10-29T00:21:10.847Z,96714.50
2022-10-29T00:23:38.395Z,96730.91
2022-10-29T00:26:05.912Z,96732.63
2022-10-29T00:28:33.830Z,96714.53
2022-10-29T00:31:05.399Z,96730.44
2022-10-29T00:33:33.132Z,96723.56
2022-10-29T00:36:03.946Z,96733.28
2022-10-29T00:38:32.742Z,96723.25
2022-10-29T00:41:00.539Z,96720.91
2022-10-29T00:43:28.547Z,96721.91
2022-10-29T00:46:30.181Z,96723.78
2022-10-29T00:48:59.058Z,96713.53
2022-10-29T00:51:26.970Z,96714.06
2022-10-29T00:53:58.359Z,96709.69
2022-10-29T00:56:26.488Z,96717.09
2022-10-29T00:58:54.118Z,96710.88
2022-10-29T01:01:21.716Z,96689.13
2022-10-29T01:03:49.738Z,96697.81
2022-10-29T01:06:17.443Z,96708.22
2022-10-29T01:08:44.943Z,96708.22
2022-10-29T01:11:22.611Z,96704.19
2022-10-29T01:14:27.503Z,96696.84
2022-10-29T01:17:18.265Z,96691.13
2022-10-29T01:19:57.989Z,96681.41
2022-10-29T01:22:44.266Z,96690.78
2022-10-29T01:25:36.740Z,96689.78
2022-10-29T01:28:19.688Z,96644.06
2022-10-29T01:30:56.107Z,96684.72
2022-10-29T01:33:29.583Z,96683.91
2022-10-29T01:36:18.491Z,96669.81
2022-10-29T01:38:49.250Z,96667.47
2022-10-29T01:41:40.052Z,96667.97
2022-10-29T01:44:11.848Z,96643.50
2022-10-29T01:46:52.893Z,96656.59
2022-10-29T01:49:28.913Z,96657.72
2022-10-29T01:51:57.434Z,96654.69
2022-10-29T01:54:24.903Z,96663.75
2022-10-29T01:56:56.944Z,96671.47
2022-10-29T01:59:35.796Z,96659.91
2022-10-29T02:02:19.984Z,96648.88
2022-10-29T02:04:47.489Z,96652.88
2022-10-29T02:07:35.654Z,96661.28
2022-10-29T02:10:24.806Z,96667.63
2022-10-29T02:12:54.353Z,96666.81
2022-10-29T02:15:27.674Z,96663.44
2022-10-29T02:18:00.021Z,96661.44
2022-10-29T02:20:27.395Z,96661.59
2022-10-29T02:22:55.280Z,96646.31
2022-10-29T02:25:22.958Z,96627.38
2022-10-29T02:27:50.527Z,96648.97
2022-10-29T02:30:18.228Z,96651.66
2022-10-29T02:32:45.689Z,96643.78
2022-10-29T02:35:13.220Z,96632.38
2022-10-29T02:37:40.665Z,96626.69
2022-10-29T02:40:08.756Z,96628.22
2022-10-29T02:42:36.424Z,96643.09
2022-10-29T02:45:04.351Z,96645.97
2022-10-29T02:47:31.914Z,96643.09
2022-10-29T02:49:59.474Z,96637.06
2022-10-29T02:52:26.930Z,96642.91
2022-10-29T02:54:54.557Z,96631.72
2022-10-29T02:57:22.020Z,96645.13
2022-10-29T02:59:49.434Z,96637.59
2022-10-29T03:02:17.067Z,96635.44
2022-10-29T03:04:44.822Z,96642.78
2022-10-29T03:07:12.415Z,96644.44
2022-10-29T03:09:39.896Z,96635.75
2022-10-29T03:12:07.902Z,96643.09
2022-10-29T03:14:35.390Z,96628.22
2022-10-29T03:17:02.918Z,96646.28
2022-10-29T03:19:30.337Z,96640.94
2022-10-29T03:21:57.794Z,96630.22
2022-10-29T03:24:25.209Z,96653.84
2022-10-29T03:26:52.654Z,96643.94
2022-10-29T03:29:20.070Z,96641.09
2022-10-29T03:31:47.631Z,96642.97
2022-10-29T03:34:15.136Z,96624.53
2022-10-29T03:36:42.713Z,96634.09
2022-10-29T03:39:10.152Z,96641.47
2022-10-29T03:41:37.596Z,96643.81
2022-10-29T03:44:05.240Z,96651.53
2022-10-29T03:46:33.025Z,96637.13
2022-10-29T03:49:00.446Z,96645.50
2022-10-29T03:51:27.996Z,96652.56
2022-10-29T03:53:55.441Z,96656.59
2022-10-29T03:56:22.844Z,96650.22
2022-10-29T03:58:50.301Z,96657.44
2022-10-29T04:01:17.909Z,96659.09
2022-10-29T04:03:45.539Z,96641.19
2022-10-29T04:06:15.006Z,96638.16
2022-10-29T04:08:43.020Z,96644.53
2022-10-29T04:11:12.053Z,96653.91
2022-10-29T04:13:39.945Z,96648.22
2022-10-29T04:16:07.920Z,96625.13
2022-10-29T04:18:35.346Z,96649.59
2022-10-29T04:29:27.206Z,96645.41
2022-10-29T04:31:54.668Z,96646.09
2022-10-29T04:34:22.144Z,96649.63
2022-10-29T04:36:52.205Z,96655.50
2022-10-29T04:39:22.553Z,96656.69
2022-10-29T04:41:51.187Z,96651.66
2022-10-29T04:44:20.048Z,96646.97
2022-10-29T04:46:47.960Z,96649.97
2022-10-29T04:49:15.665Z,96652.16
2022-10-29T04:51:43.259Z,96662.69
2022-10-29T04:54:10.767Z,96660.53
2022-10-29T04:56:38.191Z,96657.00
2022-10-29T04:59:05.669Z,96651.81
2022-10-29T05:01:33.257Z,96659.88
2022-10-29T05:04:00.884Z,96669.06
2022-10-29T05:06:28.357Z,96673.41
2022-10-29T05:08:55.791Z,96652.66
2022-10-29T05:11:23.298Z,96640.25
2022-10-29T05:13:50.771Z,96669.59
2022-10-29T05:16:18.276Z,96653.66
2022-10-29T05:18:45.790Z,96663.88
2022-10-29T05:21:13.269Z,96669.06
2022-10-29T05:23:40.732Z,96666.56
2022-10-29T05:26:08.264Z,96674.44
2022-10-29T05:28:35.742Z,96672.91
2022-10-29T05:31:03.311Z,96672.44
2022-10-29T05:33:31.030Z,96674.94
2022-10-29T05:36:00.604Z,96676.78
2022-10-29T05:38:28.175Z,96689.84
2022-10-29T05:40:58.667Z,96679.81
2022-10-29T05:43:26.205Z,96684.66
2022-10-29T05:45:53.754Z,96694.91
2022-10-29T05:48:21.177Z,96687.81
2022-10-29T05:50:48.687Z,96690.19
2022-10-29T05:53:16.222Z,96688.00
2022-10-29T05:55:45.018Z,96694.72
2022-10-29T05:58:13.795Z,96695.88
2022-10-29T06:00:45.439Z,96695.38
2022-10-29T06:03:20.915Z,96688.66
2022-10-29T06:05:49.419Z,96691.34
2022-10-29T06:08:17.582Z,96692.88
2022-10-29T06:10:45.206Z,96695.56
2022-10-29T06:13:18.167Z,96698.38
2022-10-29T06:15:46.902Z,96696.22
2022-10-29T06:18:15.261Z,96681.31
2022-10-29T06:20:45.475Z,96702.09
2022-10-29T06:23:13.211Z,96698.72
2022-10-29T06:25:40.784Z,96705.63
2022-10-29T06:28:15.127Z,96694.06
2022-10-29T06:30:48.504Z,96707.94
2022-10-29T06:33:17.081Z,96697.22
2022-10-29T06:35:44.730Z,96704.75
2022-10-29T06:38:12.779Z,96718.50
2022-10-29T06:40:41.060Z,96708.28
2022-10-29T06:43:11.333Z,96714.47
2022-10-29T06:45:39.015Z,96708.28
2022-10-29T06:48:07.216Z,96706.75
2022-10-29T06:50:34.931Z,96694.19
2022-10-29T06:53:04.462Z,96703.88
2022-10-29T06:55:33.380Z,96716.47
2022-10-29T06:58:03.178Z,96710.41
2022-10-29T07:00:31.392Z,96707.38
2022-10-29T07:02:59.524Z,96700.84
2022-10-29T07:05:27.379Z,96717.94
2022-10-29T07:07:59.381Z,96727.97
2022-10-29T07:10:31.360Z,96722.28
2022-10-29T07:12:59.257Z,96710.53
2022-10-29T07:15:27.768Z,96721.56
2022-10-29T07:18:00.935Z,96721.88
2022-10-29T07:20:30.454Z,96727.41
2022-10-29T07:22:58.262Z,96711.59
2022-10-29T07:25:26.306Z,96719.63
2022-10-29T07:27:54.457Z,96702.31
2022-10-29T07:30:22.407Z,96711.03
2022-10-29T07:32:49.826Z,96718.53
2022-10-29T07:35:17.281Z,96706.25
2022-10-29T07:37:44.741Z,96711.91
2022-10-29T07:40:12.906Z,96713.81
2022-10-29T07:42:40.405Z,96705.53
2022-10-29T07:45:08.273Z,96693.13
2022-10-29T07:47:36.017Z,96709.03
2022-10-29T07:50:04.111Z,96710.81
2022-10-29T07:52:31.610Z,96707.97
2022-10-29T07:55:01.470Z,96701.03
2022-10-29T07:57:29.235Z,96712.38
2022-10-29T07:59:56.672Z,96705.09
2022-10-29T08:02:24.164Z,96692.19
2022-10-29T08:04:51.733Z,96702.44
2022-10-29T08:07:19.149Z,96695.88
2022-10-29T08:09:46.584Z,96695.63
2022-10-29T08:12:14.012Z,96700.38
2022-10-29T08:14:41.429Z,96697.44
2022-10-29T08:17:08.943Z,96692.19
2022-10-29T08:19:36.398Z,96684.19
2022-10-29T08:22:03.850Z,96688.00
2022-10-29T08:24:31.280Z,96679.38
2022-10-29T08:26:58.777Z,96682.06
2022-10-29T08:29:26.207Z,96663.88
2022-10-29T08:31:53.682Z,96670.00
2022-10-29T08:34:21.173Z,96686.81
2022-10-29T08:36:48.620Z,96668.03
2022-10-29T08:39:16.144Z,96683.34
2022-10-29T08:42:18.140Z,96674.22
2022-10-29T08:45:23.765Z,96678.09
2022-10-29T08:47:51.275Z,96670.44
2022-10-29T08:50:31.232Z,96660.06
2022-10-29T08:55:48.560Z,96658.69
2022-10-29T08:58:29.498Z,96665.13
2022-10-29T09:00:58.471Z,96649.66
2022-10-29T09:03:32.271Z,96640.59
2022-10-29T09:06:06.531Z,96654.59
2022-10-29T09:09:01.724Z,96656.28
2022-10-29T09:11:37.971Z,96655.22
2022-10-29T09:14:34.326Z,96653.56
2022-10-29T09:17:23.079Z,96661.84
2022-10-29T09:19:53.545Z,96656.50
2022-10-29T09:22:33.003Z,96636.13
2022-10-29T09:25:00.529Z,96646.44
2022-10-29T09:27:56.324Z,96640.25
2022-10-29T09:30:24.064Z,96629.06
2022-10-29T09:32:59.758Z,96631.00
2022-10-29T09:35:37.360Z,96619.75
2022-10-29T09:38:26.520Z,96622.09
2022-10-29T09:40:57.152Z,96616.47
2022-10-29T09:43:36.765Z,96611.34
2022-10-29T09:46:36.126Z,96616.31
2022-10-29T09:49:10.693Z,96605.31
2022-10-29T09:52:01.518Z,96587.22
2022-10-29T09:54:30.080Z,96598.84
2022-10-29T09:56:59.351Z,96596.16
2022-10-29T09:59:35.315Z,96590.94
2022-10-29T10:02:03.165Z,96586.75
2022-10-29T10:04:45.581Z,96569.91
2022-10-29T10:07:17.611Z,96573.81
2022-10-29T10:10:00.999Z,96588.00
2022-10-29T10:12:37.509Z,96573.59
2022-10-29T10:15:07.058Z,96567.09
2022-10-29T10:18:16.381Z,96565.84
2022-10-29T10:20:46.826Z,96560.97
2022-10-29T10:23:55.351Z,96550.13
2022-10-29T10:26:41.549Z,96544.00
2022-10-29T10:29:14.929Z,96538.09
2022-10-29T10:31:49.955Z,96531.41
2022-10-29T10:34:17.460Z,96520.94
2022-10-29T10:36:49.019Z,96514.84
2022-10-29T10:39:41.367Z,96523.56
2022-10-29T10:42:17.285Z,96514.97
2022-10-29T10:44:53.184Z,96506.13
2022-10-29T10:47:24.296Z,96507.31
2022-10-29T10:49:51.768Z,96503.94
2022-10-29T10:52:26.924Z,96499.75
2022-10-29T10:55:01.182Z,96500.09
2022-10-29T10:57:40.543Z,96487.13
2022-10-29T11:00:19.037Z,96466.66
2022-10-29T11:02:51.044Z,96477.19
2022-10-29T11:05:23.532Z,96484.00
2022-10-29T11:07:58.052Z,96462.72
2022-10-29T11:10:32.656Z,96460.31
2022-10-29T11:13:02.787Z,96467.94
2022-10-29T11:15:39.878Z,96455.78
2022-10-29T11:18:18.463Z,96446.78
2022-10-29T11:20:54.347Z,96461.88
2022-10-29T11:23:58.767Z,96438.63
2022-10-29T11:26:29.203Z,96446.97
2022-10-29T11:29:21.361Z,96431.03
2022-10-29T11:32:07.456Z,96431.28
2022-10-29T11:34:37.875Z,96436.91
2022-10-29T11:37:37.590Z,96432.84
2022-10-29T11:40:32.248Z,96414.69
2022-10-29T11:43:07.086Z,96402.75
2022-10-29T11:45:49.899Z,96402.19
2022-10-29T11:48:46.687Z,96408.78
2022-10-29T11:51:23.002Z,96406.84
2022-10-29T11:54:24.031Z,96405.63
2022-10-29T11:57:01.784Z,96397.53
2022-10-29T11:59:50.608Z,96405.13
2022-10-29T12:02:55.828Z,96396.97
2022-10-29T12:05:54.540Z,96394.56
2022-10-29T12:08:28.037Z,96390.41
2022-10-29T12:11:01.603Z,96374.91
2022-10-29T12:13:38.005Z,96388.03
2022-10-29T12:16:11.628Z,96384.97
2022-10-29T12:18:51.285Z,96382.72
2022-10-29T12:21:37.235Z,96383.78
2022-10-29T12:24:33.679Z,96375.97
2022-10-29T12:27:04.309Z,96370.56
2022-10-29T12:29:59.001Z,96349.47
2022-10-29T12:32:53.056Z,96345.78
2022-10-29T12:35:28.920Z,96352.44
2022-10-29T12:38:34.060Z,96356.81
2022-10-29T12:41:51.155Z,96349.09
2022-10-29T12:44:18.605Z,96350.16
2022-10-29T12:46:54.343Z,96335.34
2022-10-29T12:49:33.997Z,96338.06
2022-10-29T12:52:13.678Z,96333.81
2022-10-29T12:54:42.560Z,96319.34
2022-10-29T12:57:13.126Z,96326.84
2022-10-29T12:59:44.387Z,96324.00
2022-10-29T13:02:37.902Z,96328.81
2022-10-29T13:05:11.452Z,96322.00
2022-10-29T13:07:59.281Z,96317.09
2022-10-29T13:10:33.336Z,96317.75
2022-10-29T13:13:20.999Z,96303.63
2022-10-29T13:15:59.197Z,96309.41
2022-10-29T13:18:41.147Z,96309.41
2022-10-29T13:21:08.978Z,96311.00
2022-10-29T13:23:37.643Z,96297.13
2022-10-29T13:26:09.251Z,96296.28
2022-10-29T13:28:36.654Z,96295.16
2022-10-29T13:31:04.387Z,96297.47
2022-10-29T13:33:48.842Z,96295.72
2022-10-29T13:36:16.264Z,96294.50
2022-10-29T13:39:05.565Z,96290.69
2022-10-29T13:41:40.406Z,96294.25
2022-10-29T13:44:07.849Z,96295.81
2022-10-29T13:46:50.230Z,96292.66
2022-10-29T13:49:36.372Z,96294.63
2022-10-29T13:52:16.888Z,96270.88
2022-10-29T13:54:49.619Z,96281.72
2022-10-29T13:57:40.521Z,96295.09
2022-10-29T14:00:17.872Z,96269.03
2022-10-29T14:03:03.843Z,96267.81
2022-10-29T14:05:50.494Z,96287.13
2022-10-29T14:08:33.291Z,96286.47
2022-10-29T14:11:04.564Z,96290.09
2022-10-29T14:13:35.657Z,96284.97
2022-10-29T14:16:06.353Z,96294.56
2022-10-29T14:18:41.272Z,96286.50
2022-10-29T14:21:24.756Z,96281.88
2022-10-29T14:24:06.657Z,96282.34
2022-10-29T14:26:36.408Z,96280.88
2022-10-29T14:29:19.225Z,96283.19
2022-10-29T14:31:47.845Z,96280.72
2022-10-29T14:34:27.403Z,96282.94
2022-10-29T14:37:08.214Z,96267.22
2022-10-29T14:39:57.024Z,96277.41
2022-10-29T14:42:32.601Z,96255.34
2022-10-29T14:45:05.619Z,96276.66
2022-10-29T14:47:37.360Z,96275.75
2022-10-29T14:50:06.861Z,96271.50
2022-10-29T14:52:38.811Z,96271.03
2022-10-29T14:55:19.779Z,96275.31
2022-10-29T14:58:03.354Z,96279.13
2022-10-29T15:00:33.571Z,96274.97
2022-10-29T15:03:01.418Z,96278.31
2022-10-29T15:05:36.086Z,96282.00
2022-10-29T15:08:09.245Z,96286.00
2022-10-29T15:10:50.825Z,96286.97
2022-10-29T15:13:27.486Z,96279.97
2022-10-29T15:16:07.444Z,96283.66
2022-10-29T15:18:36.054Z,96267.69
2022-10-29T15:21:04.612Z,96284.00
2022-10-29T15:23:54.643Z,96286.13
2022-10-29T15:26:22.198Z,96281.25
2022-10-29T15:28:55.154Z,96286.34
2022-10-29T15:31:31.575Z,96293.56
2022-10-29T15:34:08.585Z,96294.84
2022-10-29T15:37:20.650Z,96297.53
2022-10-29T15:40:14.811Z,96285.66
2022-10-29T15:42:44.332Z,96284.63
2022-10-29T15:45:20.783Z,96299.88
2022-10-29T15:47:58.239Z,96289.19
2022-10-29T15:50:39.167Z,96303.00
2022-10-29T15:53:16.953Z,96285.06
2022-10-29T15:55:45.570Z,96304.00
2022-10-29T15:58:18.064Z,96304.53
2022-10-29T16:00:45.614Z,96310.41
2022-10-29T16:03:14.442Z,96293.09
2022-10-29T16:05:43.973Z,96307.72
2022-10-29T16:08:20.558Z,96312.72
2022-10-29T16:10:48.083Z,96313.09
2022-10-29T16:13:16.223Z,96315.81
2022-10-29T16:15:44.366Z,96317.31
2022-10-29T16:18:12.113Z,96320.78
2022-10-29T16:20:39.568Z,96333.97
2022-10-29T16:23:10.276Z,96306.84
2022-10-29T16:25:38.267Z,96333.91
2022-10-29T16:28:06.189Z,96338.97
2022-10-29T16:30:34.147Z,96324.06
2022-10-29T16:33:02.193Z,96342.84
2022-10-29T16:35:30.430Z,96336.25
2022-10-29T16:37:58.087Z,96350.84
2022-10-29T16:40:27.451Z,96345.69
2022-10-29T16:42:55.754Z,96350.94
2022-10-29T16:45:25.912Z,96343.38
2022-10-29T16:47:53.661Z,96351.50
2022-10-29T16:50:33.761Z,96352.38
2022-10-29T16:53:03.572Z,96349.53
2022-10-29T16:55:31.123Z,96360.56
2022-10-29T16:57:59.269Z,96354.16
2022-10-29T17:00:27.109Z,96366.69
2022-10-29T17:02:54.776Z,96354.22
2022-10-29T17:05:22.668Z,96364.50
2022-10-29T17:07:54.007Z,96360.97
2022-10-29T17:10:22.169Z,96375.09
2022-10-29T17:12:50.190Z,96372.63
2022-10-29T17:15:17.648Z,96379.78
2022-10-29T17:17:46.455Z,96382.25
2022-10-29T17:20:14.272Z,96378.97
2022-10-29T17:22:41.720Z,96385.03
2022-10-29T17:25:09.655Z,96376.28
2022-10-29T17:27:41.345Z,96383.19
2022-10-29T17:30:09.967Z,96371.91
2022-10-29T17:32:37.480Z,96404.22
2022-10-29T17:35:05.326Z,96393.78
2022-10-29T17:37:32.939Z,96412.50
2022-10-29T17:40:03.340Z,96392.13
2022-10-29T17:42:34.550Z,96406.91
2022-10-29T17:45:02.017Z,96417.94
2022-10-29T17:47:30.011Z,96406.91
2022-10-29T17:49:57.597Z,96416.28
2022-10-29T17:52:25.087Z,96422.94
2022-10-29T17:54:52.640Z,96418.34
2022-10-29T17:57:20.104Z,96422.69
2022-10-29T17:59:47.564Z,96427.72
2022-10-29T18:02:15.078Z,96429.34
2022-10-29T18:04:42.633Z,96422.28
2022-10-29T18:07:10.091Z,96435.78
2022-10-29T18:09:37.545Z,96426.00
2022-10-29T18:12:05.198Z,96423.91
2022-10-29T18:14:32.774Z,96440.13
2022-10-29T18:17:01.073Z,96423.47
2022-10-29T18:19:28.809Z,96425.75
2022-10-29T18:21:56.392Z,96414.25
2022-10-29T18:24:24.265Z,96423.22
2022-10-29T18:26:51.761Z,96428.38
2022-10-29T18:29:19.379Z,96418.38
2022-10-29T18:31:46.975Z,96414.00
2022-10-29T18:34:15.325Z,96416.72
2022-10-29T18:36:43.300Z,96427.06
2022-10-29T18:39:11.024Z,96426.84
2022-10-29T18:41:39.564Z,96425.78
2022-10-29T18:44:07.072Z,96424.53
2022-10-29T18:46:34.591Z,96417.84
2022-10-29T18:49:02.091Z,96434.66
2022-10-29T18:51:31.226Z,96436.31
2022-10-29T18:53:59.751Z,96433.16
2022-10-29T18:56:28.839Z,96445.22
2022-10-29T18:58:57.165Z,96442.69
2022-10-29T19:01:27.570Z,96426.84
2022-10-29T19:03:56.663Z,96427.44
2022-10-29T19:06:26.408Z,96440.34
2022-10-29T19:08:54.362Z,96435.09
2022-10-29T19:11:25.568Z,96445.88
2022-10-29T19:13:54.678Z,96446.47
2022-10-29T19:16:22.296Z,96447.91
2022-10-29T19:18:58.016Z,96444.09
2022-10-29T19:21:26.257Z,96441.41
2022-10-29T19:23:58.224Z,96444.47
2022-10-29T19:26:29.053Z,96442.19
2022-10-29T19:28:58.484Z,96447.31
2022-10-29T19:31:27.807Z,96441.00
2022-10-29T19:33:58.126Z,96437.00
2022-10-29T19:36:27.026Z,96449.47
2022-10-29T19:38:54.975Z,96444.25
2022-10-29T19:41:22.785Z,96457.47
2022-10-29T19:43:50.654Z,96457.53
2022-10-29T19:46:24.648Z,96454.78
2022-10-29T19:48:54.067Z,96470.38
2022-10-29T19:51:22.275Z,96452.00
2022-10-29T19:53:53.129Z,96457.41
2022-10-29T19:56:21.368Z,96457.41
2022-10-29T19:58:49.046Z,96466.28
2022-10-29T20:01:18.103Z,96454.84
2022-10-29T20:03:46.607Z,96464.59
2022-10-29T20:06:14.797Z,96461.84
2022-10-29T20:08:42.556Z,96457.00
2022-10-29T20:11:10.510Z,96467.41
2022-10-29T20:13:39.840Z,96465.50
2022-10-29T20:16:09.430Z,96472.56
2022-10-29T20:18:38.373Z,96463.38
2022-10-29T20:23:38.804Z,96459.25
2022-10-29T20:26:07.035Z,96460.75
2022-10-29T20:28:34.867Z,96465.94
2022-10-29T20:31:11.775Z,96466.75
2022-10-29T20:33:39.243Z,96463.41
2022-10-29T20:36:06.936Z,96462.75
2022-10-29T20:38:34.484Z,96460.44
2022-10-29T20:41:01.974Z,96458.34
2022-10-29T20:43:29.716Z,96451.56
2022-10-29T20:46:02.028Z,96460.94
2022-10-29T20:48:30.270Z,96447.28
2022-10-29T20:50:57.830Z,96462.13
2022-10-29T20:53:25.383Z,96454.88
2022-10-29T20:55:52.949Z,96443.09
2022-10-29T20:58:20.915Z,96444.31
2022-10-29T21:00:48.746Z,96448.88
2022-10-29T21:03:17.691Z,96445.97
2022-10-29T21:05:45.210Z,96463.91
2022-10-29T21:08:12.847Z,96455.09
2022-10-29T21:10:40.494Z,96454.53
2022-10-29T21:13:08.076Z,96449.69
2022-10-29T21:15:36.742Z,96464.25
2022-10-29T21:18:04.599Z,96457.22
2022-10-29T21:20:32.633Z,96454.88
2022-10-29T21:23:00.533Z,96452.00
2022-10-29T21:25:28.503Z,96456.56
2022-10-29T21:27:56.280Z,96450.91
2022-10-29T21:30:24.066Z,96438.66
2022-10-29T21:32:52.206Z,96462.13
2022-10-29T21:35:19.668Z,96459.25
2022-10-29T21:37:47.407Z,96453.44
2022-10-29T21:40:15.001Z,96464.34
2022-10-29T21:42:42.611Z,96444.41
2022-10-29T21:45:10.553Z,96464.56
2022-10-29T21:47:38.049Z,96461.19
2022-10-29T21:50:05.899Z,96456.22
2022-10-29T21:52:33.490Z,96459.53
2022-10-29T21:55:00.960Z,96458.63
2022-10-29T21:57:28.440Z,96455.53
2022-10-29T21:59:56.095Z,96451.66
2022-10-29T22:02:23.646Z,96459.94
2022-10-29T22:04:51.254Z,96447.66
2022-10-29T22:07:18.754Z,96456.28
2022-10-29T22:09:46.332Z,96436.28
2022-10-29T22:12:13.858Z,96430.22
2022-10-29T22:14:41.426Z,96446.00
2022-10-29T22:17:08.875Z,96443.50
2022-10-29T22:19:36.417Z,96453.13
2022-10-29T22:22:03.932Z,96451.19
2022-10-29T22:24:31.547Z,96437.41
2022-10-29T22:26:59.029Z,96451.66
2022-10-29T22:29:26.526Z,96449.97
2022-10-29T22:31:53.986Z,96452.03
2022-10-29T22:34:21.792Z,96444.50
2022-10-29T22:36:52.636Z,96440.53
2022-10-29T22:39:20.184Z,96443.69
2022-10-29T22:41:47.618Z,96453.13
2022-10-29T22:44:15.077Z,96450.16
2022-10-29T22:46:42.669Z,96433.63
2022-10-29T22:49:12.211Z,96434.28
2022-10-29T22:51:39.667Z,96443.66
2022-10-29T22:54:07.110Z,96451.91
2022-10-29T22:56:37.011Z,96447.19
2022-10-29T22:59:05.280Z,96438.72
2022-10-29T23:01:38.783Z,96463.66
2022-10-29T23:04:09.814Z,96454.69
2022-10-29T23:06:37.384Z,96455.31
2022-10-29T23:09:04.988Z,96433.59
2022-10-29T23:11:35.038Z,96453.38
2022-10-29T23:14:02.929Z,96455.56
2022-10-29T23:16:32.031Z,96435.66
2022-10-29T23:19:01.570Z,96423.31
2022-10-29T23:21:29.445Z,96455.22
2022-10-29T23:23:57.238Z,96458.75
2022-10-29T23:26:25.550Z,96449.03
2022-10-29T23:28:53.227Z,96450.41
2022-10-29T23:31:22.926Z,96438.81
2022-10-29T23:33:52.097Z,96450.41
2022-10-29T23:36:21.764Z,96443.72
2022-10-29T23:38:57.579Z,96446.75
2022-10-29T23:41:28.878Z,96444.06
2022-10-29T23:43:56.969Z,96446.47
2022-10-29T23:46:24.879Z,96436.25
2022-10-29T23:48:52.581Z,96425.03
2022-10-29T23:51:20.201Z,96430.34
2022-10-29T23:53:50.335Z,96438.94
2022-10-29T23:56:20.680Z,96418.34
2022-10-29T23:58:48.162Z,96436.44
